Time;durP1;ratioP1;P1;durP2;ratioP2;P2;SDS_P1;SDS_P2;PMS_P1;PMS_P2;Temp;Humidity;BMP_temperature;BMP_pressure;BME280_temperature;BME280_humidity;BME280_pressure;Samples;Min_cycle;Max_cycle;Signal;HPM_P1;HPM_P2
2022/10/02 00:02:45;;;;;;;3.00;2.72;;;;;;;11.98;73.69;100092.98;1557515;90;21187;-74
2022/10/02 00:05:40;;;;;;;3.70;3.10;;;;;;;11.98;73.70;100102.05;1565813;90;21170;-74
2022/10/02 00:08:38;;;;;;;3.17;2.87;;;;;;;11.96;73.78;100102.58;1562365;90;21737;-74
2022/10/02 00:11:42;;;;;;;5.72;3.05;;;;;;;11.94;73.80;100102.62;1565441;89;20998;-74
2022/10/02 00:14:33;;;;;;;5.20;2.70;;;;;;;11.95;73.91;100104.77;1608010;88;21565;-74
2022/10/02 00:17:26;;;;;;;6.28;2.95;;;;;;;11.95;73.94;100112.53;1622174;87;21336;-74
2022/10/02 00:20:18;;;;;;;3.25;2.60;;;;;;;11.95;74.01;100109.95;1609162;88;21096;-74
2022/10/02 00:23:14;;;;;;;4.47;2.50;;;;;;;11.95;74.08;100115.13;1605195;88;21409;-74
2022/10/02 00:26:07;;;;;;;2.60;2.30;;;;;;;11.97;74.13;100123.22;1601316;88;21037;-75
2022/10/02 00:29:03;;;;;;;4.95;2.80;;;;;;;11.98;74.12;100118.89;1609271;88;21469;-75
2022/10/02 00:31:59;;;;;;;3.47;2.60;;;;;;;11.99;74.18;100127.92;1619351;88;21532;-75
2022/10/02 00:35:04;;;;;;;2.33;2.13;;;;;;;11.99;74.25;100126.62;1606717;88;21929;-74
2022/10/02 00:38:11;;;;;;;6.33;2.45;;;;;;;12.01;74.27;100126.58;1622159;85;21683;-74
2022/10/02 00:41:23;;;;;;;4.17;2.67;;;;;;;12.01;74.29;100131.76;1620232;88;21085;-74
2022/10/02 00:44:45;;;;;;;4.78;2.52;;;;;;;12.02;74.34;100128.27;1624947;88;21451;-74
2022/10/02 00:47:44;;;;;;;2.58;2.00;;;;;;;12.02;74.45;100133.01;1612278;88;21386;-74
2022/10/02 00:51:12;;;;;;;2.77;2.15;;;;;;;12.01;74.44;100136.49;1606391;88;21533;-74
2022/10/02 00:54:12;;;;;;;2.30;2.08;;;;;;;12.02;74.46;100142.52;1608877;88;21128;-74
2022/10/02 00:57:17;;;;;;;5.53;3.10;;;;;;;12.03;74.52;100144.22;1612454;88;21042;-74
2022/10/02 01:00:07;;;;;;;3.83;2.00;;;;;;;12.03;74.53;100146.36;1625443;87;20966;-74
2022/10/02 01:03:19;;;;;;;2.83;2.02;;;;;;;12.03;74.64;100154.59;1606252;87;21579;-74
2022/10/02 01:06:06;;;;;;;4.03;2.12;;;;;;;12.02;74.74;100150.30;1604968;88;21472;-75
2022/10/02 01:08:51;;;;;;;2.45;1.92;;;;;;;12.01;74.76;100154.63;1620423;88;21068;-75
2022/10/02 01:11:37;;;;;;;5.50;1.80;;;;;;;12.02;74.80;100160.22;1619852;87;21517;-75
2022/10/02 01:14:35;;;;;;;5.40;2.17;;;;;;;12.02;74.78;100163.25;1621810;87;21046;-75
2022/10/02 01:17:34;;;;;;;2.40;1.90;;;;;;;12.01;74.79;100168.88;1615230;87;21120;-75
2022/10/02 01:20:41;;;;;;;5.03;1.70;;;;;;;12.02;74.87;100170.58;1620501;88;21556;-75
2022/10/02 01:23:50;;;;;;;2.75;1.67;;;;;;;12.02;74.94;100173.17;1619024;87;22209;-75
2022/10/02 01:26:35;;;;;;;4.97;2.00;;;;;;;12.02;75.00;100179.66;1616542;88;21564;-74
2022/10/02 01:29:20;;;;;;;2.35;1.55;;;;;;;12.03;75.00;100185.69;1626694;88;21616;-74
2022/10/02 01:32:05;;;;;;;2.22;1.55;;;;;;;12.04;75.08;100185.64;1614403;87;21057;-74
2022/10/02 01:34:52;;;;;;;3.60;1.60;;;;;;;12.04;75.06;100194.71;1620205;87;21143;-74
2022/10/02 01:37:40;;;;;;;3.20;1.70;;;;;;;12.06;75.10;100194.22;1614738;87;21100;-74
2022/10/02 01:40:30;;;;;;;5.28;1.65;;;;;;;12.06;75.20;100198.55;1610666;87;21077;-74
2022/10/02 01:43:28;;;;;;;2.55;1.50;;;;;;;12.05;75.16;100198.15;1592896;87;21474;-74
2022/10/02 01:47:05;;;;;;;3.77;1.67;;;;;;;12.06;75.21;100206.33;1602128;87;21170;-74
2022/10/02 01:50:14;;;;;;;3.83;1.25;;;;;;;12.06;75.31;100210.22;1608423;87;21557;-74
2022/10/02 01:53:10;;;;;;;3.90;1.47;;;;;;;12.05;75.32;100214.55;1606512;87;21167;-74
2022/10/02 01:56:18;;;;;;;2.00;1.40;;;;;;;12.05;75.36;100217.14;1593811;87;21160;-74
2022/10/02 01:59:32;;;;;;;5.45;1.25;;;;;;;12.05;75.36;100224.06;1596892;87;21604;-74
2022/10/02 02:02:30;;;;;;;1.92;1.22;;;;;;;12.05;75.36;100221.03;1615329;87;21104;-74
2022/10/02 02:05:43;;;;;;;4.35;1.20;;;;;;;12.06;75.42;100230.50;1636956;86;21109;-74
2022/10/02 02:08:51;;;;;;;7.58;1.20;;;;;;;12.06;75.37;100233.54;1612752;87;21130;-74
2022/10/02 02:11:44;;;;;;;2.55;1.40;;;;;;;12.05;75.39;100231.84;1648636;86;21123;-74
2022/10/02 02:14:32;;;;;;;2.42;1.47;;;;;;;12.04;75.41;100240.06;1645648;86;21068;-74
2022/10/02 02:17:26;;;;;;;3.00;0.98;;;;;;;12.04;75.45;100245.69;1648380;85;21115;-74
2022/10/02 02:20:16;;;;;;;5.17;1.30;;;;;;;12.02;75.45;100244.44;1640315;86;21607;-75
2022/10/02 02:23:11;;;;;;;2.17;1.27;;;;;;;12.01;75.53;100246.63;1609484;87;21562;-74
2022/10/02 02:26:02;;;;;;;3.70;1.30;;;;;;;11.99;75.54;100252.30;1643232;86;21592;-74
2022/10/02 02:28:52;;;;;;;3.20;1.27;;;;;;;11.99;75.55;100251.00;1633707;86;21572;-74
2022/10/02 02:31:56;;;;;;;1.57;1.15;;;;;;;12.00;75.61;100256.58;1643255;86;21112;-74
2022/10/02 02:34:44;;;;;;;3.08;1.45;;;;;;;11.99;75.77;100253.59;1642483;86;21622;-74
2022/10/02 02:37:33;;;;;;;4.92;1.25;;;;;;;11.99;75.65;100248.85;1646132;86;21112;-74
2022/10/02 02:40:25;;;;;;;2.17;1.10;;;;;;;11.96;75.64;100256.74;1646269;86;21057;-74
2022/10/02 02:43:21;;;;;;;3.27;1.25;;;;;;;11.96;75.69;100256.74;1646898;86;21055;-74
2022/10/02 02:46:12;;;;;;;7.30;1.62;;;;;;;11.91;75.72;100253.83;1645772;86;21041;-74
2022/10/02 02:49:02;;;;;;;3.35;1.52;;;;;;;11.90;75.75;100256.02;1625572;86;21118;-74
2022/10/02 02:51:49;;;;;;;6.08;1.65;;;;;;;11.87;75.76;100258.69;1644411;86;21075;-74
2022/10/02 02:54:45;;;;;;;2.40;1.30;;;;;;;11.84;75.81;100263.95;1649076;86;21112;-74
2022/10/02 02:57:51;;;;;;;5.15;1.55;;;;;;;11.83;75.78;100268.73;1650716;86;21057;-74
2022/10/02 03:00:36;;;;;;;5.75;1.67;;;;;;;11.81;75.88;100273.55;1586520;89;21091;-74
2022/10/02 03:03:21;;;;;;;1.77;1.05;;;;;;;11.81;75.90;100271.80;1630572;86;21032;-74
2022/10/02 03:06:30;;;;;;;4.40;1.75;;;;;;;11.82;75.86;100276.09;1641769;86;21155;-74
2022/10/02 03:09:19;;;;;;;6.17;1.45;;;;;;;11.84;75.89;100280.80;1592881;87;21830;-74
2022/10/02 03:12:12;;;;;;;4.03;1.50;;;;;;;11.83;75.91;100281.69;1603160;86;21544;-74
2022/10/02 03:15:23;;;;;;;4.50;1.50;;;;;;;11.83;75.91;100280.83;1600460;89;21126;-74
2022/10/02 03:18:26;;;;;;;6.35;1.70;;;;;;;11.84;75.96;100285.13;1580806;88;21389;-74
2022/10/02 03:21:18;;;;;;;6.05;1.45;;;;;;;11.81;75.97;100278.28;1597269;89;21091;-74
2022/10/02 03:24:30;;;;;;;5.60;1.37;;;;;;;11.84;76.00;100287.72;1584544;89;21878;-74
2022/10/02 03:27:35;;;;;;;7.83;1.90;;;;;;;11.81;75.95;100288.64;1594415;89;21796;-74
2022/10/02 03:30:21;;;;;;;5.12;2.20;;;;;;;11.81;76.02;100296.41;1567858;89;21091;-74
2022/10/02 03:33:09;;;;;;;9.03;1.57;;;;;;;11.82;76.01;100298.12;1577930;89;21334;-74
2022/10/02 03:35:55;;;;;;;10.03;2.30;;;;;;;11.80;76.03;100293.42;1579005;90;21697;-74
2022/10/02 03:38:42;;;;;;;4.03;1.85;;;;;;;11.79;76.04;100300.78;1587051;90;21108;-74
2022/10/02 03:41:26;;;;;;;;;;;;;;;11.78;76.06;100302.13;1574426;90;21568;-74
2022/10/02 03:44:11;;;;;;;5.35;1.98;;;;;;;11.75;76.19;100297.83;1585782;89;20216;-74
2022/10/02 03:46:56;;;;;;;2.98;1.45;;;;;;;11.75;76.21;100306.05;1612547;87;21120;-74
2022/10/02 03:49:41;;;;;;;6.65;1.55;;;;;;;11.74;76.11;100302.61;1595366;87;21088;-74
2022/10/02 03:52:30;;;;;;;2.72;1.15;;;;;;;11.76;76.19;100304.72;1618320;87;21140;-74
2022/10/02 03:55:34;;;;;;;9.28;1.62;;;;;;;11.76;76.16;100304.72;1619381;87;21077;-74
2022/10/02 03:58:18;;;;;;;5.17;1.85;;;;;;;11.78;76.17;100303.41;1601151;87;21108;-74
2022/10/02 04:01:26;;;;;;;5.00;1.75;;;;;;;11.79;76.24;100304.67;1617198;87;21124;-75
2022/10/02 04:04:19;;;;;;;5.30;2.20;;;;;;;11.80;76.25;100308.11;1606641;87;21144;-74
2022/10/02 04:07:07;;;;;;;4.85;1.70;;;;;;;11.81;76.24;100317.14;1613537;87;21153;-74
2022/10/02 04:10:15;;;;;;;4.20;1.70;;;;;;;11.83;76.25;100317.95;1605719;87;21098;-74
2022/10/02 04:13:21;;;;;;;5.58;2.30;;;;;;;11.83;76.30;100319.69;1604648;87;21096;-73
2022/10/02 04:16:17;;;;;;;5.22;1.75;;;;;;;11.83;76.37;100319.25;1620608;87;21100;-74
2022/10/02 04:19:23;;;;;;;4.60;1.22;;;;;;;11.81;76.32;100321.02;1605987;87;21617;-74
2022/10/02 04:22:42;;;;;;;12.70;1.87;;;;;;;11.84;76.35;100326.58;1599449;87;21621;-74
2022/10/02 04:25:32;;;;;;;6.40;2.17;;;;;;;11.85;76.36;100328.27;1599263;87;21029;-74
2022/10/02 04:28:22;;;;;;;7.55;2.65;;;;;;;11.83;76.37;100328.31;1611463;87;21080;-73
2022/10/02 04:31:12;;;;;;;7.95;2.30;;;;;;;11.85;76.37;100324.39;1599697;87;21120;-74
2022/10/02 04:34:01;;;;;;;6.67;1.87;;;;;;;11.87;76.38;100332.52;1617032;87;21552;-74
2022/10/02 04:37:01;;;;;;;9.20;2.00;;;;;;;11.87;76.38;100336.41;1595305;88;21129;-74
2022/10/02 04:40:21;;;;;;;8.98;1.98;;;;;;;11.87;76.41;100337.71;1476742;88;10000233;-74
2022/10/02 04:43:31;;;;;;;6.10;1.25;;;;;;;11.88;76.43;100339.41;1593363;88;21065;-74
2022/10/02 04:46:52;;;;;;;6.72;1.90;;;;;;;11.89;76.39;100337.67;1598266;88;21162;-74
2022/10/02 04:50:11;;;;;;;4.60;1.60;;;;;;;11.88;76.44;100343.74;1592700;88;21632;-74
2022/10/02 04:53:31;;;;;;;4.87;1.40;;;;;;;11.89;76.46;100348.03;1590681;88;21101;-74
2022/10/02 04:56:25;;;;;;;3.58;1.07;;;;;;;11.88;76.47;100354.95;1606114;88;21593;-74
2022/10/02 04:59:36;;;;;;;5.37;1.70;;;;;;;11.87;76.44;100363.62;1592655;87;21154;-74
2022/10/02 05:02:47;;;;;;;9.38;1.52;;;;;;;11.88;76.44;100362.73;1596514;88;21393;-74
2022/10/02 05:06:10;;;;;;;7.05;1.95;;;;;;;11.88;76.48;100357.99;1603465;88;21503;-74
2022/10/02 05:09:13;;;;;;;5.92;1.50;;;;;;;11.89;76.50;100364.88;1588432;88;21120;-74
2022/10/02 05:12:12;;;;;;;5.17;1.30;;;;;;;11.91;76.52;100363.09;1590576;88;21069;-74
2022/10/02 05:15:17;;;;;;;9.65;1.62;;;;;;;11.90;76.48;100365.28;1602539;88;21100;-74
2022/10/02 05:18:36;;;;;;;9.98;1.50;;;;;;;11.88;76.51;100364.47;1601554;88;21061;-74
2022/10/02 05:21:29;;;;;;;9.55;1.42;;;;;;;11.88;76.50;100364.02;1597901;87;21560;-74
2022/10/02 05:24:28;;;;;;;7.87;1.32;;;;;;;11.90;76.55;100368.72;1604017;88;21105;-74
2022/10/02 05:27:52;;;;;;;4.70;1.62;;;;;;;11.91;76.59;100373.45;1601346;88;21085;-74
2022/10/02 05:31:03;;;;;;;5.60;1.42;;;;;;;11.92;76.58;100364.35;1531401;92;21222;-74
2022/10/02 05:33:55;;;;;;;6.80;1.70;;;;;;;11.95;76.60;100370.34;1539361;92;21613;-74
2022/10/02 05:37:06;;;;;;;4.37;1.30;;;;;;;11.98;76.62;100375.42;1527250;92;21233;-74
2022/10/02 05:40:29;;;;;;;5.75;1.30;;;;;;;11.98;76.60;100371.53;1530503;92;21117;-74
2022/10/02 05:43:34;;;;;;;5.62;1.42;;;;;;;12.00;76.57;100376.23;1530803;92;21569;-74
2022/10/02 05:46:29;;;;;;;7.07;1.87;;;;;;;12.00;76.61;100380.97;1531824;92;21174;-74
2022/10/02 05:49:31;;;;;;;9.25;1.80;;;;;;;12.00;76.61;100380.12;1534889;92;21073;-74
2022/10/02 05:52:36;;;;;;;7.10;1.70;;;;;;;12.01;76.65;100381.82;1530080;92;21657;-74
2022/10/02 05:55:50;;;;;;;6.92;1.42;;;;;;;12.02;76.65;100375.30;1530314;92;21144;-74
2022/10/02 05:59:11;;;;;;;7.37;2.08;;;;;;;12.03;76.60;100382.19;1535751;92;21113;-74
2022/10/02 06:02:01;;;;;;;6.65;1.70;;;;;;;12.05;76.60;100384.73;1529457;92;21186;-74
2022/10/02 06:04:54;;;;;;;6.22;2.33;;;;;;;12.04;76.56;100385.63;1564811;88;21073;-74
2022/10/02 06:07:43;;;;;;;7.30;1.80;;;;;;;12.03;76.58;100395.59;1591566;88;21129;-74
2022/10/02 06:10:39;;;;;;;7.40;1.67;;;;;;;12.04;76.59;100398.59;1601632;88;21109;-74
2022/10/02 06:13:38;;;;;;;9.30;1.55;;;;;;;12.04;76.59;100402.47;1615902;88;21117;-74
2022/10/02 06:16:47;;;;;;;8.15;1.98;;;;;;;12.03;76.57;100396.88;1596031;88;21113;-74
2022/10/02 06:19:56;;;;;;;4.75;1.40;;;;;;;12.05;76.60;100404.17;1593699;88;21153;-74
2022/10/02 06:22:50;;;;;;;6.72;1.27;;;;;;;12.04;76.59;100404.62;1602925;87;21112;-74
2022/10/02 06:25:43;;;;;;;8.48;2.30;;;;;;;12.05;76.59;100404.17;1603051;88;21070;-74
2022/10/02 06:28:51;;;;;;;9.28;2.00;;;;;;;12.06;76.59;100410.62;1596807;87;21145;-75
2022/10/02 06:31:44;;;;;;;7.92;2.20;;;;;;;12.06;76.60;100411.06;1602107;87;21089;-75
2022/10/02 06:34:29;;;;;;;4.67;1.90;;;;;;;12.05;76.57;100414.09;1609645;87;21163;-74
2022/10/02 06:37:37;;;;;;;7.87;1.95;;;;;;;12.07;76.59;100418.80;1636443;87;21670;-74
2022/10/02 06:41:06;;;;;;;9.25;3.05;;;;;;;12.09;76.59;100408.39;1610517;87;21152;-74
2022/10/02 06:44:18;;;;;;;7.15;2.05;;;;;;;12.09;76.59;100409.69;1636472;84;21125;-75
2022/10/02 06:47:33;;;;;;;7.33;2.20;;;;;;;12.12;76.57;100410.91;1644487;85;21098;-77
2022/10/02 06:50:44;;;;;;;5.40;1.72;;;;;;;12.17;76.59;100414.23;1626270;86;21875;-74
2022/10/02 06:53:46;;;;;;;14.50;2.98;;;;;;;12.23;76.59;100425.30;1644056;86;21047;-74
2022/10/02 06:56:57;;;;;;;9.58;2.45;;;;;;;12.25;76.54;100420.08;1643775;85;218278;-74
2022/10/02 07:00:10;;;;;;;9.68;1.80;;;;;;;12.24;76.53;100419.22;1578279;88;21173;-76
2022/10/02 07:03:39;;;;;;;9.83;1.60;;;;;;;12.28;76.53;100421.30;1601972;87;21136;-76
2022/10/02 07:06:41;;;;;;;8.13;1.85;;;;;;;12.31;76.54;100422.95;1600834;87;21218;-74
2022/10/02 07:10:06;;;;;;;12.85;2.00;;;;;;;12.39;76.60;100415.38;1603097;88;21079;-76
2022/10/02 07:13:10;;;;;;;9.30;1.95;;;;;;;12.48;76.58;100418.14;1582759;88;21592;-76
2022/10/02 07:16:21;;;;;;;7.20;1.67;;;;;;;12.42;76.53;100394.55;1578911;88;21076;-76
2022/10/02 07:19:29;;;;;;;8.90;1.67;;;;;;;12.60;76.54;100421.25;1586823;87;21195;-76
2022/10/02 07:22:31;;;;;;;7.78;2.15;;;;;;;12.67;76.56;100418.49;1579924;89;21069;-76
2022/10/02 07:25:35;;;;;;;7.08;2.02;;;;;;;12.70;76.49;100423.59;1567647;89;21684;-76
2022/10/02 07:28:48;;;;;;;9.18;1.67;;;;;;;12.70;76.44;100429.64;1594622;88;21083;-76
2022/10/02 07:32:23;;;;;;;9.28;2.20;;;;;;;12.71;76.45;100416.22;1591944;87;21160;-77
2022/10/02 07:35:37;;;;;;;9.70;2.08;;;;;;;12.73;76.46;100419.17;1519660;92;21109;-76
2022/10/02 07:38:42;;;;;;;8.55;1.70;;;;;;;12.81;76.47;100421.11;1563568;91;21762;-76
2022/10/02 07:41:58;;;;;;;5.83;1.70;;;;;;;12.84;76.37;100423.63;1566930;90;21144;-76
2022/10/02 07:45:19;;;;;;;8.93;1.90;;;;;;;12.84;76.38;100422.33;1566608;90;28292;-76
2022/10/02 07:48:49;;;;;;;7.60;1.70;;;;;;;12.87;76.42;100418.80;1560916;90;21644;-76
2022/10/02 07:51:57;;;;;;;10.58;1.65;;;;;;;12.98;76.43;100429.72;1557024;90;21091;-76
2022/10/02 07:55:19;;;;;;;4.37;1.10;;;;;;;13.07;76.37;100432.47;1561147;90;21687;-76
2022/10/02 07:58:27;;;;;;;5.37;1.67;;;;;;;13.09;76.30;100434.56;1571202;90;21071;-76
2022/10/02 08:01:29;;;;;;;5.75;1.95;;;;;;;13.05;76.24;100437.70;1560397;90;21104;-76
2022/10/02 08:04:19;;;;;;;7.65;2.00;;;;;;;13.05;76.29;100426.47;1569247;91;21052;-75
2022/10/02 08:07:06;;;;;;;8.58;1.85;;;;;;;13.04;76.20;100420.88;1642761;85;21061;-77
2022/10/02 08:09:52;;;;;;;;;;;;;;;13.05;76.26;100423.87;1650694;85;21081;-77
2022/10/02 08:12:59;;;;;;;4.67;1.98;;;;;;;13.09;76.13;100419.84;1650422;85;20183;-77
2022/10/02 08:15:49;;;;;;;10.75;2.10;;;;;;;13.13;76.22;100418.01;1660540;85;21108;-77
2022/10/02 08:18:39;;;;;;;8.88;2.58;;;;;;;13.17;76.21;100423.09;1657536;85;21098;-77
2022/10/02 08:21:26;;;;;;;6.05;1.67;;;;;;;13.23;76.23;100420.77;1653362;85;21084;-77
2022/10/02 08:24:25;;;;;;;6.40;2.05;;;;;;;13.36;76.18;100422.55;1660088;85;21529;-77
2022/10/02 08:27:53;;;;;;;8.28;2.10;;;;;;;13.41;76.19;100430.61;1654554;85;21275;-76
2022/10/02 08:30:38;;;;;;;8.98;2.80;;;;;;;13.49;76.08;100417.38;1654685;84;21569;-76
2022/10/02 08:33:24;;;;;;;7.70;2.25;;;;;;;13.51;76.08;100419.03;1660276;85;21072;-76
2022/10/02 08:36:27;;;;;;;15.03;2.60;;;;;;;13.59;76.12;100426.11;1624865;86;21114;-76
2022/10/02 08:39:50;;;;;;;8.88;2.67;;;;;;;13.66;76.10;100425.47;1617555;87;21121;-76
2022/10/02 08:43:07;;;;;;;9.88;2.50;;;;;;;13.69;76.01;100424.08;1622414;87;21119;-76
2022/10/02 08:46:30;;;;;;;6.72;2.12;;;;;;;13.67;75.97;100427.17;1620761;86;21065;-76
2022/10/02 08:49:42;;;;;;;;;;;;;;;13.67;75.97;100432.37;1621126;87;21037;-76
2022/10/02 08:52:45;;;;;;;8.78;2.52;;;;;;;13.58;75.79;100424.41;1620015;87;20607;-77
2022/10/02 08:56:06;;;;;;;10.60;2.87;;;;;;;13.58;75.99;100428.30;1617530;87;21100;-76
2022/10/02 08:59:30;;;;;;;9.68;2.65;;;;;;;13.60;75.92;100433.45;1592353;89;21115;-76
2022/10/02 09:02:52;;;;;;;7.50;2.50;;;;;;;13.57;75.86;100428.36;1582206;88;21583;-76
2022/10/02 09:06:16;;;;;;;5.58;2.27;;;;;;;13.53;75.95;100426.75;1594503;89;21111;-75
2022/10/02 09:09:47;;;;;;;6.85;2.92;;;;;;;13.56;75.95;100428.80;1586339;88;21785;-75
2022/10/02 09:13:01;;;;;;;6.42;2.47;;;;;;;13.52;75.89;100431.09;1580529;89;21138;-75
2022/10/02 09:16:03;;;;;;;10.55;2.30;;;;;;;13.56;75.96;100436.59;1601330;88;21087;-75
2022/10/02 09:18:58;;;;;;;9.25;1.85;;;;;;;13.62;75.95;100435.55;1622894;87;21093;-75
2022/10/02 09:21:58;;;;;;;6.70;2.40;;;;;;;13.82;76.00;100444.03;1604661;87;21148;-75
2022/10/02 09:25:03;;;;;;;7.37;2.50;;;;;;;13.97;75.91;100446.13;1615911;87;21057;-75
2022/10/02 09:28:03;;;;;;;7.27;3.07;;;;;;;14.04;75.78;100445.00;1615169;87;21158;-75
2022/10/02 09:31:25;;;;;;;8.43;2.60;;;;;;;14.12;75.76;100431.75;1608668;86;21133;-75
2022/10/02 09:34:30;;;;;;;9.43;2.10;;;;;;;14.23;75.71;100440.89;1614008;87;21137;-75
2022/10/02 09:37:42;;;;;;;5.87;2.17;;;;;;;14.40;75.73;100434.27;1622489;87;21122;-75
2022/10/02 09:41:16;;;;;;;5.92;1.65;;;;;;;14.58;75.71;100442.73;1614329;87;21598;-75
2022/10/02 09:44:55;;;;;;;4.50;1.70;;;;;;;14.60;75.35;100437.48;1621457;86;21164;-75
2022/10/02 09:48:05;;;;;;;6.50;1.60;;;;;;;14.54;75.24;100440.73;1619579;86;21167;-75
2022/10/02 09:51:13;;;;;;;6.20;1.62;;;;;;;14.42;75.19;100438.55;1617486;87;21131;-75
2022/10/02 09:54:38;;;;;;;9.73;2.15;;;;;;;14.40;75.20;100427.77;1621927;87;21121;-75
2022/10/02 09:57:43;;;;;;;5.47;1.27;;;;;;;14.44;75.23;100421.14;1617116;87;21109;-75
2022/10/02 10:00:48;;;;;;;3.05;1.32;;;;;;;14.51;75.22;100424.38;1618461;86;21105;-75
2022/10/02 10:04:30;;;;;;;4.55;1.40;;;;;;;14.55;75.02;100424.22;1614178;87;21620;-73
2022/10/02 10:07:41;;;;;;;6.60;1.70;;;;;;;14.52;75.01;100410.47;1619714;87;21178;-73
2022/10/02 10:10:49;;;;;;;9.20;1.62;;;;;;;14.58;75.05;100412.36;1622371;87;21109;-73
2022/10/02 10:14:14;;;;;;;6.62;1.75;;;;;;;14.69;74.99;100408.53;1625549;87;21391;-74
2022/10/02 10:17:30;;;;;;;6.78;1.77;;;;;;;14.73;74.80;100410.97;1624942;87;21148;-73
2022/10/02 10:20:50;;;;;;;3.90;1.30;;;;;;;14.90;74.86;100409.05;1623435;87;21114;-76
2022/10/02 10:23:59;;;;;;;4.83;1.37;;;;;;;15.01;74.58;100428.18;1619845;86;21636;-73
2022/10/02 10:27:02;;;;;;;5.78;1.42;;;;;;;14.98;74.41;100422.63;1619419;86;21117;-73
2022/10/02 10:30:17;;;;;;;3.20;1.60;;;;;;;14.94;74.19;100420.20;1620353;87;21097;-73
2022/10/02 10:33:49;;;;;;;5.10;2.67;;;;;;;14.94;74.33;100417.14;1618464;87;21122;-73
2022/10/02 10:40:53;;;;;;;5.15;1.75;;;;;;;15.05;74.26;100408.48;1615492;87;21088;-75
2022/10/02 10:43:52;;;;;;;2.97;1.43;;;;;;;15.02;74.10;100420.77;1621232;86;21041;-75
2022/10/02 10:47:02;;;;;;;5.83;1.30;;;;;;;14.94;73.91;100413.24;1623885;87;21102;-75
2022/10/02 10:50:25;;;;;;;3.40;1.05;;;;;;;14.93;73.92;100419.80;1616569;86;21121;-75
2022/10/02 10:53:21;;;;;;;2.20;0.88;;;;;;;14.94;73.82;100411.94;1575981;89;21946;-76
2022/10/02 10:56:32;;;;;;;;;;;;;;;15.05;73.46;100405.88;1582695;89;21121;-73
2022/10/02 10:59:41;;;;;;;3.15;1.10;;;;;;;15.17;73.43;100404.08;1577855;89;20501;-74
2022/10/02 11:03:03;;;;;;;5.80;1.30;;;;;;;15.36;73.61;100402.08;1579002;89;21633;-76
2022/10/02 11:06:14;;;;;;;4.62;1.10;;;;;;;15.52;73.49;100410.53;1581389;89;21106;-77
2022/10/02 11:09:10;;;;;;;3.40;1.10;;;;;;;15.64;73.36;100407.89;1578802;88;21368;-77
2022/10/02 11:12:24;;;;;;;2.45;1.00;;;;;;;15.68;73.27;100412.53;1567304;89;22201;-77
2022/10/02 11:15:32;;;;;;;2.20;1.05;;;;;;;15.64;73.08;100411.80;1572252;89;21153;-77
2022/10/02 11:18:46;;;;;;;3.17;1.35;;;;;;;15.58;72.91;100407.33;1565519;89;21170;-73
2022/10/02 11:22:06;;;;;;;6.28;1.17;;;;;;;15.52;72.96;100402.72;1563333;89;21151;-73
2022/10/02 11:25:34;;;;;;;4.50;1.30;;;;;;;15.51;72.88;100400.17;1543031;91;21123;-73
2022/10/02 11:28:47;;;;;;;2.85;1.00;;;;;;;15.50;72.75;100403.69;1540915;92;21186;-75
2022/10/02 11:31:55;;;;;;;6.00;1.42;;;;;;;15.43;72.59;100397.86;1540117;92;21140;-76
2022/10/02 11:34:45;;;;;;;3.58;1.40;;;;;;;15.40;72.54;100397.98;1536671;92;21146;-76
2022/10/02 11:38:09;;;;;;;5.53;1.30;;;;;;;15.39;72.53;100396.29;1554976;90;21135;-76
2022/10/02 11:41:40;;;;;;;3.92;1.12;;;;;;;15.40;72.49;100403.65;1582466;89;21119;-76
2022/10/02 11:44:50;;;;;;;5.30;1.20;;;;;;;15.44;72.33;100393.50;1580607;89;21168;-76
2022/10/02 11:47:49;;;;;;;2.27;1.10;;;;;;;15.53;72.27;100387.47;1653479;85;21036;-76
2022/10/02 11:51:00;;;;;;;3.55;0.78;;;;;;;15.66;72.18;100384.38;1624515;86;21045;-76
2022/10/02 11:54:06;;;;;;;6.85;1.35;;;;;;;15.76;72.10;100380.48;1613229;87;21077;-76
2022/10/02 11:57:09;;;;;;;4.03;1.20;;;;;;;15.76;71.96;100383.09;1644150;86;21098;-78
2022/10/02 12:00:31;;;;;;;4.95;1.30;;;;;;;15.76;71.93;100376.58;1648467;85;21376;-78
2022/10/02 12:03:34;;;;;;;4.65;1.25;;;;;;;15.78;71.88;100377.36;1644425;86;22303;-78
2022/10/02 12:06:41;;;;;;;3.90;1.25;;;;;;;15.86;71.77;100375.29;1647865;86;21109;-78
2022/10/02 12:09:51;;;;;;;6.17;1.07;;;;;;;15.88;71.60;100368.25;1642886;85;21159;-78
2022/10/02 12:12:42;;;;;;;4.10;1.20;;;;;;;15.89;71.52;100361.66;1657868;85;21121;-78
2022/10/02 12:15:50;;;;;;;8.98;1.65;;;;;;;15.88;71.34;100365.19;1598297;88;21705;-78
2022/10/02 12:18:59;;;;;;;5.20;1.30;;;;;;;15.86;71.34;100370.92;1610810;87;21107;-78
2022/10/02 12:28:51;;;;;;;9.35;1.75;;;;;;;15.80;71.24;100358.14;1631233;86;21143;-78
2022/10/02 12:31:50;;;;;;;11.20;1.62;;;;;;;15.82;71.21;100365.89;1627697;86;21591;-78
2022/10/02 12:34:52;;;;;;;2.87;1.02;;;;;;;15.83;71.13;100360.62;1637368;86;21112;-78
2022/10/02 12:38:05;;;;;;;4.58;1.30;;;;;;;15.85;71.06;100369.68;1601895;87;21666;-78
2022/10/02 12:41:02;;;;;;;8.93;1.37;;;;;;;15.88;71.08;100357.36;1598228;88;21201;-78
2022/10/02 12:44:31;;;;;;;3.98;1.20;;;;;;;15.89;70.96;100356.45;1591035;89;21130;-78
2022/10/02 12:47:55;;;;;;;5.12;1.42;;;;;;;15.95;70.95;100355.80;1587839;89;21103;-78
2022/10/02 12:51:17;;;;;;;1.80;0.88;;;;;;;16.09;70.98;100356.07;1590609;89;21100;-78
2022/10/02 12:54:44;;;;;;;3.45;1.25;;;;;;;16.10;70.81;100353.39;1621731;86;21603;-75
2022/10/02 12:57:54;;;;;;;4.28;1.12;;;;;;;16.11;70.82;100353.78;1624071;87;21063;-75
2022/10/02 13:00:49;;;;;;;5.42;1.32;;;;;;;16.11;70.77;100342.50;1614534;88;21069;-78
2022/10/02 13:04:05;;;;;;;4.65;1.15;;;;;;;16.16;70.80;100341.36;1607603;88;21161;-77
2022/10/02 13:07:32;;;;;;;3.58;1.52;;;;;;;16.17;70.65;100341.75;1616776;87;21067;-77
2022/10/02 13:10:31;;;;;;;2.90;1.00;;;;;;;16.08;70.56;100343.94;1611965;87;22095;-78
2022/10/02 13:13:34;;;;;;;5.45;1.47;;;;;;;15.99;70.54;100334.75;1613681;87;21114;-78
2022/10/02 13:16:47;;;;;;;4.70;1.10;;;;;;;15.96;70.56;100332.72;1615073;87;21168;-78
2022/10/02 13:20:11;;;;;;;4.80;1.12;;;;;;;15.93;70.52;100338.07;1570454;89;21594;-78
2022/10/02 13:23:29;;;;;;;5.92;1.75;;;;;;;15.88;70.44;100329.98;1562917;90;21846;-78
2022/10/02 13:26:21;;;;;;;5.35;1.60;;;;;;;15.80;70.42;100325.55;1568520;90;21160;-78
2022/10/02 13:29:23;;;;;;;5.20;1.55;;;;;;;15.74;70.39;100323.66;1567263;90;21156;-78
2022/10/02 13:32:30;;;;;;;3.85;1.70;;;;;;;15.68;70.35;100319.54;1556763;89;21637;-78
2022/10/02 13:35:40;;;;;;;8.00;2.10;;;;;;;15.66;70.36;100314.00;1565451;90;21267;-78
2022/10/02 13:39:08;;;;;;;4.50;1.77;;;;;;;15.65;70.31;100314.45;1566289;88;21760;-79
2022/10/02 13:42:07;;;;;;;4.35;1.87;;;;;;;15.61;70.25;100312.88;1568244;89;21658;-79
2022/10/02 13:45:19;;;;;;;6.87;1.65;;;;;;;15.64;70.27;100315.37;1571477;90;21177;-78
2022/10/02 13:48:36;;;;;;;4.50;2.30;;;;;;;15.67;70.19;100311.33;1565745;89;21740;-79
2022/10/02 13:51:32;;;;;;;3.35;1.50;;;;;;;15.63;70.04;100307.16;1565144;91;21190;-78
2022/10/02 13:54:31;;;;;;;5.05;1.40;;;;;;;15.65;70.04;100307.09;1570379;90;21033;-78
2022/10/02 13:57:48;;;;;;;3.20;1.30;;;;;;;15.66;70.01;100301.81;1610295;87;21155;-78
2022/10/02 14:00:41;;;;;;;3.02;1.45;;;;;;;15.66;70.04;100300.52;1617381;87;21114;-78
2022/10/02 14:03:47;;;;;;;5.28;1.60;;;;;;;15.63;69.98;100295.42;1618042;87;21089;-77
2022/10/02 14:06:54;;;;;;;;;;;;;;;15.63;69.95;100291.52;1612125;86;21201;-78
2022/10/02 14:10:04;;;;;;;3.65;1.37;;;;;;;15.65;69.86;100286.23;1574257;89;21141;-78
2022/10/02 14:13:26;;;;;;;4.03;1.02;;;;;;;15.64;69.92;100284.09;1576285;89;21157;-78
2022/10/02 14:16:25;;;;;;;2.40;0.82;;;;;;;15.62;69.81;100278.55;1572799;89;21149;-78
2022/10/02 14:19:24;;;;;;;2.52;1.50;;;;;;;15.62;69.72;100278.55;1580485;89;21773;-78
2022/10/02 14:22:35;;;;;;;1.57;0.60;;;;;;;15.61;69.62;100280.77;1578698;89;21730;-78
2022/10/02 14:25:53;;;;;;;7.70;1.60;;;;;;;15.59;69.52;100282.62;1578587;89;21149;-78
2022/10/02 14:28:59;;;;;;;2.40;1.00;;;;;;;15.60;69.45;100285.61;1579953;89;21128;-78
2022/10/02 14:31:50;;;;;;;4.12;1.02;;;;;;;15.61;69.26;100285.52;1573561;89;21049;-78
2022/10/02 14:35:14;;;;;;;4.45;1.20;;;;;;;15.70;69.41;100286.89;1578780;89;21153;-78